createdAt,value
2018-02-15T00:00:42.551Z,3.16
2018-02-15T00:03:11.674Z,3.16
2018-02-15T00:05:41.520Z,3.12
2018-02-15T00:08:10.642Z,3.11
2018-02-15T00:10:39.735Z,3.24
2018-02-15T00:13:08.853Z,3.25
2018-02-15T00:15:37.937Z,3.23
2018-02-15T00:18:07.055Z,3.16
2018-02-15T00:20:36.173Z,3.21
2018-02-15T00:23:05.310Z,3.19
2018-02-15T00:25:34.398Z,3.02
2018-02-15T00:28:04.577Z,3.12
2018-02-15T00:30:33.673Z,3.07
2018-02-15T00:33:03.529Z,3.11
2018-02-15T00:35:32.637Z,3.13
2018-02-15T00:38:01.746Z,3.14
2018-02-15T00:40:30.886Z,3.22
2018-02-15T00:43:00.743Z,3.05
2018-02-15T00:45:29.858Z,3.10
2018-02-15T00:47:59.858Z,3.07
2018-02-15T00:50:28.954Z,3.10
2018-02-15T00:52:58.070Z,3.08
2018-02-15T00:55:27.180Z,3.19
2018-02-15T00:57:56.274Z,3.21
2018-02-15T01:00:25.358Z,3.26
2018-02-15T01:02:54.519Z,3.27
2018-02-15T01:05:23.629Z,3.30
2018-02-15T01:07:52.745Z,3.23
2018-02-15T01:10:21.841Z,3.47
2018-02-15T01:12:50.958Z,3.49
2018-02-15T01:15:20.176Z,3.38
2018-02-15T01:17:49.293Z,3.41
2018-02-15T01:20:18.444Z,3.40
2018-02-15T01:22:48.477Z,3.40
2018-02-15T01:25:17.596Z,3.34
2018-02-15T01:27:46.745Z,3.38
2018-02-15T01:30:15.837Z,3.27
2018-02-15T01:32:45.774Z,3.18
2018-02-15T01:35:15.014Z,3.27
2018-02-15T01:37:45.391Z,3.21
2018-02-15T01:40:14.518Z,3.28
2018-02-15T01:42:45.532Z,3.26
2018-02-15T01:45:15.547Z,3.27
2018-02-15T01:47:44.635Z,3.29
2018-02-15T01:50:13.743Z,3.35
2018-02-15T01:52:43.199Z,3.33
2018-02-15T01:55:12.305Z,3.40
2018-02-15T01:57:41.517Z,3.31
2018-02-15T02:00:10.636Z,3.36
2018-02-15T02:02:39.756Z,3.36
2018-02-15T02:05:09.601Z,3.49
2018-02-15T02:07:38.750Z,3.46
2018-02-15T02:10:07.856Z,3.45
2018-02-15T02:12:37.730Z,3.42
2018-02-15T02:15:06.852Z,3.38
2018-02-15T02:17:35.953Z,3.46
2018-02-15T02:20:05.075Z,3.42
2018-02-15T02:22:34.915Z,3.40
2018-02-15T02:25:04.046Z,3.41
2018-02-15T02:27:33.135Z,3.47
2018-02-15T02:30:03.031Z,3.41
2018-02-15T02:32:32.118Z,3.50
2018-02-15T02:35:01.218Z,3.57
2018-02-15T02:37:30.320Z,3.72
2018-02-15T02:39:59.414Z,3.65
2018-02-15T02:44:56.787Z,3.55
2018-02-15T02:47:26.806Z,3.50
2018-02-15T02:49:55.905Z,3.47
2018-02-15T02:52:25.009Z,3.40
2018-02-15T02:54:54.096Z,3.40
2018-02-15T02:57:23.213Z,3.46
2018-02-15T02:59:52.330Z,3.44
2018-02-15T03:02:22.173Z,3.47
2018-02-15T03:04:51.285Z,3.45
2018-02-15T03:07:20.459Z,3.62
2018-02-15T03:09:49.578Z,3.55
2018-02-15T03:12:18.680Z,3.57
2018-02-15T03:14:47.801Z,3.55
2018-02-15T03:17:16.911Z,3.56
2018-02-15T03:19:46.004Z,3.55
2018-02-15T03:22:15.115Z,3.49
2018-02-15T03:24:44.976Z,3.50
2018-02-15T03:27:14.081Z,3.46
2018-02-15T03:29:43.192Z,3.55
2018-02-15T03:32:12.302Z,3.56
2018-02-15T03:34:41.400Z,3.51
2018-02-15T03:37:10.508Z,3.55
2018-02-15T03:39:40.374Z,3.52
2018-02-15T03:42:09.499Z,3.56
2018-02-15T03:44:38.601Z,3.62
2018-02-15T03:47:07.691Z,3.60
2018-02-15T03:49:36.811Z,3.61
2018-02-15T03:52:06.675Z,3.63
2018-02-15T03:54:36.569Z,3.63
2018-02-15T03:57:06.254Z,3.52
2018-02-15T03:59:36.130Z,3.49
2018-02-15T04:02:05.262Z,3.50
2018-02-15T04:04:35.144Z,3.47
2018-02-15T04:07:05.742Z,3.54
2018-02-15T04:09:34.848Z,3.53
2018-02-15T04:12:03.998Z,3.52
2018-02-15T04:14:33.092Z,3.50
2018-02-15T04:17:02.951Z,3.50
2018-02-15T04:19:32.070Z,3.51
2018-02-15T04:22:01.159Z,3.55
2018-02-15T04:24:30.261Z,3.53
2018-02-15T04:26:59.374Z,3.57
2018-02-15T04:29:28.473Z,3.53
2018-02-15T04:31:58.361Z,3.55
2018-02-15T04:34:27.445Z,3.52
2018-02-15T04:36:56.560Z,3.55
2018-02-15T04:39:27.161Z,3.54
2018-02-15T04:41:56.280Z,3.52
2018-02-15T04:44:25.376Z,3.52
2018-02-15T04:46:54.483Z,3.51
2018-02-15T04:49:23.616Z,3.53
2018-02-15T04:51:53.496Z,3.49
2018-02-15T04:54:22.614Z,3.49
2018-02-15T04:56:51.709Z,3.48
2018-02-15T04:59:21.597Z,3.54
2018-02-15T05:01:50.715Z,3.56
2018-02-15T05:04:19.826Z,3.49
2018-02-15T05:06:49.687Z,3.43
2018-02-15T05:09:18.837Z,3.40
2018-02-15T05:11:48.692Z,3.41
2018-02-15T05:14:17.788Z,3.40
2018-02-15T05:16:46.898Z,3.40
2018-02-15T05:19:16.004Z,3.39
2018-02-15T05:21:45.113Z,3.35
2018-02-15T05:24:14.208Z,3.36
2018-02-15T05:26:43.329Z,3.38
2018-02-15T05:29:13.187Z,3.40
2018-02-15T05:31:42.295Z,3.40
2018-02-15T05:34:11.390Z,3.43
2018-02-15T05:36:40.510Z,3.44
2018-02-15T05:39:09.627Z,3.46
2018-02-15T05:41:39.505Z,3.47
2018-02-15T05:44:08.618Z,3.46
2018-02-15T05:46:37.746Z,3.45
2018-02-15T05:49:06.836Z,3.46
2018-02-15T05:51:36.690Z,3.47
2018-02-15T05:54:05.809Z,3.45
2018-02-15T05:56:34.913Z,3.48
2018-02-15T05:59:04.027Z,3.52
2018-02-15T06:01:33.913Z,3.60
2018-02-15T06:04:03.102Z,3.61
2018-02-15T06:06:32.900Z,3.63
2018-02-15T06:09:02.030Z,3.62
2018-02-15T06:11:31.162Z,3.65
2018-02-15T06:14:01.090Z,3.64
2018-02-15T06:16:30.209Z,3.60
2018-02-15T06:18:59.348Z,3.59
2018-02-15T06:21:28.477Z,3.60
2018-02-15T06:23:57.623Z,3.64
2018-02-15T06:26:26.763Z,3.65
2018-02-15T06:28:56.659Z,3.66
2018-02-15T06:31:26.571Z,3.71
2018-02-15T06:33:55.703Z,3.69
2018-02-15T06:36:25.598Z,3.69
2018-02-15T06:38:54.743Z,3.69
2018-02-15T06:41:23.872Z,3.67
2018-02-15T06:43:53.007Z,3.65
2018-02-15T06:46:22.156Z,3.62
2018-02-15T06:48:51.278Z,3.61
2018-02-15T06:51:21.768Z,3.61
2018-02-15T06:53:50.892Z,3.57
2018-02-15T06:56:20.787Z,3.57
2018-02-15T06:58:49.924Z,3.55
2018-02-15T07:01:19.035Z,3.52
2018-02-15T07:03:48.218Z,3.48
2018-02-15T07:06:17.362Z,3.51
2018-02-15T07:08:46.493Z,3.70
2018-02-15T07:11:16.396Z,3.76
2018-02-15T07:13:45.518Z,3.66
2018-02-15T07:16:14.643Z,3.59
2018-02-15T07:18:43.778Z,3.52
2018-02-15T07:21:17.772Z,3.53
2018-02-15T07:23:47.672Z,3.60
2018-02-15T07:26:16.788Z,3.47
2018-02-15T07:28:45.928Z,3.38
2018-02-15T07:31:15.833Z,3.27
2018-02-15T07:33:45.740Z,3.22
2018-02-15T07:36:14.887Z,3.21
2018-02-15T07:38:44.026Z,3.19
2018-02-15T07:41:13.175Z,3.14
2018-02-15T07:43:43.077Z,3.13
2018-02-15T07:46:12.202Z,3.13
2018-02-15T07:48:41.390Z,3.16
2018-02-15T07:51:10.523Z,3.09
2018-02-15T07:53:39.660Z,3.07
2018-02-15T07:56:08.808Z,3.07
2018-02-15T07:58:37.945Z,3.22
2018-02-15T08:01:07.873Z,3.26
2018-02-15T08:03:37.014Z,3.19
2018-02-15T08:06:06.146Z,3.16
2018-02-15T08:08:36.048Z,3.11
2018-02-15T08:11:05.178Z,3.14
2018-02-15T08:13:34.330Z,3.08
2018-02-15T08:16:03.456Z,3.10
2018-02-15T08:18:33.359Z,3.16
2018-02-15T08:21:03.262Z,3.28
2018-02-15T08:23:32.428Z,3.12
2018-02-15T08:26:01.570Z,3.10
2018-02-15T08:28:30.706Z,3.29
2018-02-15T08:30:59.827Z,3.25
2018-02-15T08:33:28.955Z,3.31
2018-02-15T08:35:58.094Z,3.32
2018-02-15T08:38:27.229Z,3.24
2018-02-15T08:40:56.380Z,3.26
2018-02-15T08:43:25.509Z,3.30
2018-02-15T08:45:54.652Z,3.32
2018-02-15T08:48:24.554Z,3.31
2018-02-15T08:50:54.483Z,3.39
2018-02-15T08:53:24.369Z,3.35
2018-02-15T08:55:53.506Z,3.31
2018-02-15T08:58:22.650Z,3.34
2018-02-15T09:00:51.783Z,3.43
2018-02-15T09:03:21.710Z,3.46
2018-02-15T09:05:51.615Z,3.45
2018-02-15T09:08:21.583Z,3.46
2018-02-15T09:10:50.752Z,3.55
2018-02-15T09:13:19.876Z,3.51
2018-02-15T09:15:48.991Z,3.47
2018-02-15T09:18:18.132Z,3.52
2018-02-15T09:20:48.042Z,3.52
2018-02-15T09:23:17.947Z,3.53
2018-02-15T09:25:47.834Z,3.64
2018-02-15T09:28:16.986Z,3.65
2018-02-15T09:30:46.123Z,3.69
2018-02-15T09:33:15.282Z,3.75
2018-02-15T09:35:44.414Z,3.70
2018-02-15T09:38:13.563Z,3.69
2018-02-15T09:40:42.706Z,3.70
2018-02-15T09:43:11.871Z,3.72
2018-02-15T09:45:40.998Z,3.73
2018-02-15T09:48:10.169Z,3.71
2018-02-15T09:50:39.316Z,3.75
2018-02-15T09:53:08.446Z,3.79
2018-02-15T09:55:37.587Z,3.81
2018-02-15T09:58:06.726Z,3.88
2018-02-15T10:00:36.635Z,3.84
2018-02-15T10:03:05.767Z,3.90
2018-02-15T10:05:34.906Z,3.94
2018-02-15T10:08:04.015Z,3.96
2018-02-15T10:10:33.166Z,3.97
2018-02-15T10:13:02.295Z,3.99
2018-02-15T10:15:31.440Z,4.16
2018-02-15T10:18:01.392Z,4.18
2018-02-15T10:20:31.306Z,4.17
2018-02-15T10:23:00.432Z,4.15
2018-02-15T10:25:29.561Z,4.11
2018-02-15T10:27:58.713Z,4.21
2018-02-15T10:30:27.846Z,4.18
2018-02-15T10:32:57.787Z,4.23
2018-02-15T10:35:26.915Z,4.26
2018-02-15T10:37:56.065Z,4.35
2018-02-15T10:40:25.264Z,4.38
2018-02-15T10:42:54.395Z,4.36
2018-02-15T10:45:23.538Z,4.43
2018-02-15T10:47:53.465Z,4.35
2018-02-15T10:50:23.377Z,4.37
2018-02-15T10:52:52.546Z,4.37
2018-02-15T10:55:21.682Z,4.40
2018-02-15T10:57:50.845Z,4.41
2018-02-15T11:00:19.986Z,4.40
2018-02-15T11:02:54.695Z,4.43
2018-02-15T11:05:29.630Z,4.53
2018-02-15T11:07:58.777Z,4.56
2018-02-15T11:10:27.928Z,4.57
2018-02-15T11:12:57.841Z,4.55
2018-02-15T11:15:27.011Z,4.53
2018-02-15T11:17:56.152Z,4.52
2018-02-15T11:20:25.278Z,4.51
2018-02-15T11:22:54.435Z,4.50
2018-02-15T11:25:23.576Z,4.48
2018-02-15T11:27:52.803Z,4.70
2018-02-15T11:30:21.934Z,4.69
2018-02-15T11:32:51.080Z,4.82
2018-02-15T11:35:20.216Z,4.74
2018-02-15T11:37:49.356Z,4.78
2018-02-15T11:40:18.514Z,4.68
2018-02-15T11:42:47.685Z,4.65
2018-02-15T11:45:16.831Z,4.65
2018-02-15T11:47:45.978Z,4.62
2018-02-15T11:50:15.091Z,4.69
2018-02-15T11:52:44.233Z,4.79
2018-02-15T11:55:14.119Z,4.71
2018-02-15T11:57:43.286Z,4.66
2018-02-15T12:00:13.196Z,4.73
2018-02-15T12:02:42.342Z,4.77
2018-02-15T12:05:11.491Z,4.86
2018-02-15T12:07:40.648Z,4.90
2018-02-15T12:10:09.782Z,4.96
2018-02-15T12:12:38.929Z,4.75
2018-02-15T12:15:08.066Z,4.69
2018-02-15T12:17:37.229Z,4.69
2018-02-15T12:20:06.353Z,4.82
2018-02-15T12:22:35.520Z,4.79
2018-02-15T12:25:04.692Z,4.75
2018-02-15T12:27:33.836Z,4.80
2018-02-15T12:30:03.005Z,4.74
2018-02-15T12:32:32.160Z,4.86
2018-02-15T12:35:01.309Z,4.91
2018-02-15T12:37:30.448Z,4.99
2018-02-15T12:39:59.711Z,4.96
2018-02-15T12:42:28.863Z,4.93
2018-02-15T12:44:58.782Z,4.90
2018-02-15T12:47:28.694Z,4.91
2018-02-15T12:49:58.581Z,4.92
2018-02-15T12:52:27.739Z,4.89
2018-02-15T12:54:56.897Z,4.96
2018-02-15T12:57:26.797Z,4.99
2018-02-15T12:59:55.970Z,4.90
2018-02-15T13:02:25.110Z,4.88
2018-02-15T13:04:55.723Z,4.92
2018-02-15T13:07:24.856Z,5.10
2018-02-15T13:09:54.024Z,5.11
2018-02-15T13:12:41.182Z,5.00
2018-02-15T13:15:28.111Z,5.04
2018-02-15T13:17:57.253Z,5.00
2018-02-15T13:20:26.386Z,4.99
2018-02-15T13:22:55.538Z,5.04
2018-02-15T13:25:24.722Z,5.09
2018-02-15T13:41:34.323Z,5.01
2018-02-15T13:44:03.455Z,4.98
2018-02-15T13:46:32.617Z,5.04
2018-02-15T13:49:02.503Z,4.96
2018-02-15T13:51:32.415Z,4.88
2018-02-15T13:54:02.478Z,5.02
2018-02-15T13:56:31.716Z,5.03
2018-02-15T13:59:00.864Z,5.12
2018-02-15T14:01:30.009Z,5.15
2018-02-15T14:03:59.135Z,5.14
2018-02-15T14:06:28.280Z,5.14
2018-02-15T14:08:57.439Z,5.05
2018-02-15T14:11:26.564Z,5.14
2018-02-15T14:13:55.719Z,5.05
2018-02-15T14:16:24.847Z,5.20
2018-02-15T14:18:53.993Z,5.24
2018-02-15T14:21:24.483Z,5.25
2018-02-15T14:23:53.643Z,5.25
2018-02-15T14:26:22.776Z,5.28
2018-02-15T14:28:51.947Z,5.23
2018-02-15T14:31:21.080Z,5.17
2018-02-15T14:33:50.234Z,5.09
2018-02-15T14:36:19.384Z,5.24
2018-02-15T14:38:48.548Z,5.31
2018-02-15T14:41:17.676Z,5.18
2018-02-15T14:43:46.827Z,5.18
2018-02-15T14:46:15.938Z,5.14
2018-02-15T14:48:45.053Z,5.10
2018-02-15T14:51:14.360Z,5.11
2018-02-15T14:53:43.507Z,5.08
2018-02-15T14:56:13.413Z,5.05
2018-02-15T14:58:43.327Z,5.06
2018-02-15T15:01:13.242Z,5.06
2018-02-15T15:03:42.434Z,5.08
2018-02-15T15:06:11.604Z,5.09
2018-02-15T15:08:40.752Z,5.11
2018-02-15T15:11:09.912Z,5.14
2018-02-15T15:13:39.049Z,5.13
2018-02-15T15:16:08.211Z,5.15
2018-02-15T15:18:38.164Z,5.14
2018-02-15T15:21:07.340Z,5.15
2018-02-15T15:23:37.289Z,5.25
2018-02-15T15:26:08.325Z,5.24
2018-02-15T15:28:37.447Z,5.22
2018-02-15T15:31:07.379Z,5.27
2018-02-15T15:33:36.524Z,5.32
2018-02-15T15:36:05.670Z,5.29
2018-02-15T15:38:34.823Z,5.38
2018-02-15T15:41:03.997Z,5.32
2018-02-15T15:43:33.914Z,5.32
2018-02-15T15:46:03.845Z,5.30
2018-02-15T15:48:32.976Z,5.47
2018-02-15T15:51:02.140Z,5.43
2018-02-15T15:53:31.282Z,5.40
2018-02-15T15:56:00.448Z,5.35
2018-02-15T15:58:29.579Z,5.35
2018-02-15T16:00:58.691Z,5.34
2018-02-15T16:03:27.865Z,5.31
2018-02-15T16:05:57.033Z,5.34
2018-02-15T16:08:26.196Z,5.32
2018-02-15T16:10:55.319Z,5.30
2018-02-15T16:13:24.454Z,5.30
2018-02-15T16:15:53.591Z,5.38
2018-02-15T16:18:22.718Z,5.39
2018-02-15T16:20:52.647Z,5.39
2018-02-15T16:23:22.584Z,5.37
2018-02-15T16:25:51.763Z,5.35
2018-02-15T16:28:22.609Z,5.35
2018-02-15T16:30:52.535Z,5.35
2018-02-15T16:33:21.672Z,5.35
2018-02-15T16:35:50.841Z,5.33
2018-02-15T16:38:20.000Z,5.33
2018-02-15T16:40:50.946Z,5.34
2018-02-15T16:43:20.873Z,5.35
2018-02-15T16:45:50.012Z,5.40
2018-02-15T16:48:19.166Z,5.38
2018-02-15T16:50:49.095Z,5.38
2018-02-15T16:53:18.220Z,5.39
2018-02-15T16:55:47.385Z,5.39
2018-02-15T16:58:16.558Z,5.39
2018-02-15T17:00:46.464Z,5.44
2018-02-15T17:03:16.439Z,5.61
2018-02-15T17:05:45.578Z,5.68
2018-02-15T17:08:14.728Z,5.67
2018-02-15T17:10:43.885Z,5.63
2018-02-15T17:13:13.849Z,5.57
2018-02-15T17:15:42.976Z,5.50
2018-02-15T17:18:12.172Z,5.51
2018-02-15T17:20:42.259Z,5.48
2018-02-15T17:23:11.403Z,5.45
2018-02-15T17:25:40.519Z,5.55
2018-02-15T17:28:09.669Z,5.58
2018-02-15T17:30:38.816Z,5.54
2018-02-15T17:33:08.722Z,5.54
2018-02-15T17:35:38.628Z,5.61
2018-02-15T17:51:06.685Z,5.60
2018-02-15T17:53:36.629Z,5.47
2018-02-15T17:56:06.446Z,5.41
2018-02-15T17:58:35.585Z,5.49
2018-02-15T18:01:04.754Z,5.45
2018-02-15T18:03:33.941Z,5.38
2018-02-15T18:06:03.098Z,5.47
2018-02-15T18:08:32.250Z,5.38
2018-02-15T18:11:01.415Z,5.34
2018-02-15T18:13:30.576Z,5.33
2018-02-15T18:15:59.699Z,5.43
2018-02-15T18:18:29.626Z,5.46
2018-02-15T18:20:58.760Z,5.52
2018-02-15T18:23:27.931Z,5.57
2018-02-15T18:25:57.069Z,5.55
2018-02-15T18:28:26.228Z,5.52
2018-02-15T18:30:55.396Z,5.48
2018-02-15T18:33:25.314Z,5.49
2018-02-15T18:35:55.249Z,5.46
2018-02-15T18:38:24.401Z,5.45
2018-02-15T18:40:53.586Z,5.49
2018-02-15T18:43:22.736Z,5.46
2018-02-15T18:45:52.135Z,5.47
2018-02-15T18:48:22.066Z,5.52
2018-02-15T18:50:51.217Z,5.60
2018-02-15T18:53:20.402Z,5.56
2018-02-15T18:55:49.550Z,5.53
2018-02-15T18:58:18.700Z,5.50
2018-02-15T19:00:47.864Z,5.47
2018-02-15T19:03:17.587Z,5.50
2018-02-15T19:05:46.723Z,5.48
2018-02-15T19:08:16.636Z,5.46
2018-02-15T19:10:45.793Z,5.45
2018-02-15T19:13:14.944Z,5.42
2018-02-15T19:15:44.881Z,5.41
2018-02-15T19:18:14.018Z,5.41
2018-02-15T19:20:43.186Z,5.41
2018-02-15T19:23:12.328Z,5.43
2018-02-15T19:25:41.491Z,5.44
2018-02-15T19:28:10.632Z,5.46
2018-02-15T19:30:39.752Z,5.60
2018-02-15T19:33:08.944Z,5.69
2018-02-15T19:35:38.874Z,5.63
2018-02-15T19:38:08.039Z,5.55
2018-02-15T19:40:37.215Z,5.55
2018-02-15T19:43:07.158Z,5.50
2018-02-15T19:45:37.114Z,5.49
2018-02-15T19:48:06.298Z,5.62
2018-02-15T19:50:35.479Z,5.61
2018-02-15T19:53:05.403Z,5.56
2018-02-15T19:55:34.557Z,5.56
2018-02-15T19:58:03.716Z,5.53
2018-02-15T20:00:33.626Z,5.52
2018-02-15T20:03:02.803Z,5.51
2018-02-15T20:05:31.945Z,5.54
2018-02-15T20:08:01.101Z,5.53
2018-02-15T20:10:31.002Z,5.52
2018-02-15T20:13:00.899Z,5.56
2018-02-15T20:15:35.624Z,5.63
2018-02-15T20:18:04.767Z,5.68
2018-02-15T20:20:33.930Z,5.82
2018-02-15T20:23:03.845Z,5.78
2018-02-15T20:25:33.762Z,5.70
2018-02-15T20:28:08.332Z,5.75
2018-02-15T20:30:37.501Z,5.85
2018-02-15T20:33:07.431Z,5.74
2018-02-15T20:35:36.591Z,5.78
2018-02-15T20:38:12.042Z,5.98
2018-02-15T20:40:41.203Z,5.92
2018-02-15T20:43:10.349Z,5.85
2018-02-15T20:45:40.297Z,5.92
2018-02-15T20:48:09.428Z,5.81
2018-02-15T20:50:43.981Z,5.87
2018-02-15T20:53:19.526Z,5.75
2018-02-15T20:55:49.453Z,5.66
2018-02-15T20:58:19.428Z,5.65
2018-02-15T21:00:48.588Z,5.65
2018-02-15T21:03:17.746Z,5.67
2018-02-15T21:05:47.195Z,5.68
2018-02-15T21:08:16.320Z,5.64
2018-02-15T21:10:45.487Z,5.64
2018-02-15T21:13:14.644Z,5.68
2018-02-15T21:15:44.602Z,5.65
2018-02-15T21:18:13.762Z,5.64
2018-02-15T21:20:43.676Z,5.66
2018-02-15T21:23:12.828Z,5.69
2018-02-15T21:25:42.009Z,5.66
2018-02-15T21:28:11.152Z,5.65
2018-02-15T21:30:41.901Z,5.75
2018-02-15T21:33:12.628Z,5.75
2018-02-15T21:35:41.759Z,5.75
2018-02-15T21:38:11.928Z,5.83
2018-02-15T21:40:41.063Z,6.02
2018-02-15T21:43:11.009Z,6.03
2018-02-15T21:45:40.162Z,6.05
2018-02-15T21:48:10.094Z,5.94
2018-02-15T21:50:40.004Z,6.00
2018-02-15T21:53:10.771Z,6.01
2018-02-15T21:55:39.930Z,6.02
2018-02-15T21:58:09.847Z,6.00
2018-02-15T22:00:39.753Z,6.08
2018-02-15T22:03:08.915Z,6.09
2018-02-15T22:05:38.040Z,5.98
2018-02-15T22:08:07.933Z,5.93
2018-02-15T22:10:37.076Z,5.93
2018-02-15T22:13:07.034Z,5.94
2018-02-15T22:15:36.174Z,5.97
2018-02-15T22:18:05.302Z,5.96
2018-02-15T22:20:34.413Z,5.99
2018-02-15T22:23:03.542Z,5.96
2018-02-15T22:25:32.670Z,6.13
2018-02-15T22:28:02.547Z,6.09
2018-02-15T22:30:31.700Z,6.07
2018-02-15T22:33:00.814Z,6.11
2018-02-15T22:35:29.963Z,6.18
2018-02-15T22:37:59.065Z,6.36
2018-02-15T22:40:28.949Z,6.30
2018-02-15T22:42:58.054Z,6.27
2018-02-15T22:45:27.188Z,6.29
2018-02-15T22:47:57.037Z,6.33
2018-02-15T22:50:26.152Z,6.44
2018-02-15T22:52:55.270Z,6.37
2018-02-15T22:55:24.366Z,6.23
2018-02-15T22:57:53.466Z,6.17
2018-02-15T23:00:23.345Z,6.23
2018-02-15T23:02:52.451Z,6.31
2018-02-15T23:05:21.586Z,6.24
2018-02-15T23:07:51.490Z,6.27
2018-02-15T23:10:20.611Z,6.24
2018-02-15T23:12:49.747Z,6.20
2018-02-15T23:15:18.881Z,6.23
2018-02-15T23:17:47.985Z,6.18
2018-02-15T23:20:17.898Z,6.12
2018-02-15T23:22:46.997Z,6.11
2018-02-15T23:25:16.882Z,6.24
2018-02-15T23:27:45.960Z,6.29
2018-02-15T23:30:17.920Z,6.22
2018-02-15T23:32:47.771Z,6.30
2018-02-15T23:35:17.660Z,6.16
2018-02-15T23:37:47.558Z,6.18
2018-02-15T23:40:16.661Z,6.11
2018-02-15T23:42:45.772Z,6.06
2018-02-15T23:45:14.899Z,6.12
2018-02-15T23:47:44.791Z,6.20
2018-02-15T23:50:13.937Z,6.15
2018-02-15T23:52:43.058Z,6.12
2018-02-15T23:55:12.162Z,6.20
2018-02-15T23:57:41.260Z,6.25
